Terminal Aerodrome Forecast
Issued by NWS

Home | Current Version | Previous Version | Text Only | Print | Product List | Glossary On
Versions: 1 2 3 4 5 6 7 8 9 10 11 12 13 14 15 16 17 18 19 20 21 22 23 24
000
FTUS43 KLSX 270200 AAA
TAFCPS
TAF AMD
KCPS 270206Z 2702/2724 VRB03KT 3SM -DZSN BR OVC005
      TEMPO 2702/2704 1SM -SN BR
     FM270400 32007KT 6SM -RASN BR OVC009
     FM270500 32011KT P6SM OVC007
     FM271200 31010KT P6SM OVC015
     FM271800 31010KT P6SM SCT025 BKN250=

USA.gov is the U.S. government's official web portal to all federal, state and local government web resources and services.